createdAt,value
2023-01-15T00:02:18.291Z,10.79
2023-01-15T00:04:46.438Z,12.08
2023-01-15T00:07:14.459Z,11.59
2023-01-15T00:09:42.431Z,10.95
2023-01-15T00:12:10.528Z,10.51
2023-01-15T00:14:38.510Z,10.21
2023-01-15T00:17:06.600Z,10.02
2023-01-15T00:19:34.561Z,10.76
2023-01-15T00:22:02.705Z,12.16
2023-01-15T00:24:49.362Z,11.75
2023-01-15T00:27:36.073Z,11.04
2023-01-15T00:30:05.155Z,10.60
2023-01-15T00:32:33.217Z,10.32
2023-01-15T00:35:01.505Z,10.12
2023-01-15T00:37:29.572Z,10.44
2023-01-15T00:39:57.701Z,12.07
2023-01-15T00:42:25.836Z,12.52
2023-01-15T00:44:53.967Z,11.78
2023-01-15T00:47:22.080Z,11.20
2023-01-15T00:49:51.705Z,10.82
2023-01-15T00:52:19.686Z,10.53
2023-01-15T00:54:48.447Z,10.32
2023-01-15T00:57:16.289Z,10.33
2023-01-15T00:59:44.396Z,11.72
2023-01-15T01:02:12.588Z,12.32
2023-01-15T01:04:40.630Z,11.66
2023-01-15T01:07:08.928Z,11.12
2023-01-15T01:09:36.950Z,10.77
2023-01-15T01:12:05.278Z,10.53
2023-01-15T01:14:33.253Z,10.34
2023-01-15T01:17:01.309Z,10.22
2023-01-15T01:19:29.616Z,11.36
2023-01-15T01:21:57.475Z,12.76
2023-01-15T01:24:25.641Z,12.18
2023-01-15T01:26:54.825Z,11.53
2023-01-15T01:29:23.929Z,11.09
2023-01-15T01:31:52.272Z,10.78
2023-01-15T01:34:20.257Z,10.56
2023-01-15T01:36:48.203Z,10.38
2023-01-15T01:39:19.110Z,10.24
2023-01-15T01:41:48.177Z,10.11
2023-01-15T01:44:37.575Z,10.63
2023-01-15T01:47:11.757Z,12.56
2023-01-15T01:49:40.725Z,12.16
2023-01-15T01:52:14.355Z,11.48
2023-01-15T01:54:44.611Z,11.02
2023-01-15T01:57:13.865Z,10.74
2023-01-15T01:59:41.979Z,10.52
2023-01-15T02:02:10.264Z,10.35
2023-01-15T02:04:38.549Z,10.23
2023-01-15T02:07:07.387Z,10.94
2023-01-15T02:09:35.341Z,12.34
2023-01-15T02:12:17.836Z,11.97
2023-01-15T02:15:12.387Z,11.35
2023-01-15T02:18:12.633Z,10.91
2023-01-15T02:20:47.739Z,10.62
2023-01-15T02:24:14.463Z,10.44
2023-01-15T02:27:07.719Z,10.25
2023-01-15T02:29:56.964Z,10.84
2023-01-15T02:32:39.772Z,12.75
2023-01-15T02:35:23.321Z,12.50
2023-01-15T02:37:59.358Z,11.73
2023-01-15T02:40:28.655Z,11.24
2023-01-15T02:42:57.668Z,10.94
2023-01-15T02:45:35.654Z,10.71
2023-01-15T02:48:12.966Z,10.52
2023-01-15T02:50:46.569Z,10.52
2023-01-15T02:53:28.352Z,12.02
2023-01-15T02:56:05.572Z,12.59
2023-01-15T02:58:38.196Z,11.88
2023-01-15T03:01:13.184Z,11.37
2023-01-15T03:03:57.114Z,11.02
2023-01-15T03:06:43.623Z,10.75
2023-01-15T03:09:12.345Z,10.55
2023-01-15T03:12:04.962Z,10.87
2023-01-15T03:14:43.170Z,12.84
2023-01-15T03:17:22.993Z,12.93
2023-01-15T03:19:58.878Z,12.12
2023-01-15T03:22:32.234Z,11.58
2023-01-15T03:25:19.836Z,11.21
2023-01-15T03:27:48.011Z,10.92
2023-01-15T03:30:19.960Z,10.71
2023-01-15T03:32:48.797Z,11.00
2023-01-15T03:35:52.790Z,12.71
2023-01-15T03:38:35.612Z,12.85
2023-01-15T03:41:26.056Z,12.03
2023-01-15T03:44:15.931Z,11.45
2023-01-15T03:47:24.587Z,11.08
2023-01-15T03:50:12.884Z,10.78
2023-01-15T03:53:10.587Z,11.65
2023-01-15T03:55:54.333Z,13.53
2023-01-15T03:58:48.515Z,13.06
2023-01-15T04:01:20.521Z,12.17
2023-01-15T04:03:50.200Z,11.66
2023-01-15T04:06:18.963Z,11.30
2023-01-15T04:08:47.587Z,11.05
2023-01-15T04:11:24.679Z,11.83
2023-01-15T04:13:53.706Z,13.44
2023-01-15T04:16:28.035Z,13.04
2023-01-15T04:18:56.397Z,12.23
2023-01-15T04:21:24.754Z,11.69
2023-01-15T04:23:53.024Z,12.23
2023-01-15T04:26:21.220Z,13.73
2023-01-15T04:28:49.369Z,13.49
2023-01-15T04:31:17.633Z,12.64
2023-01-15T04:33:45.628Z,12.01
2023-01-15T04:36:15.154Z,11.65
2023-01-15T04:38:43.204Z,12.64
2023-01-15T04:41:29.792Z,13.86
2023-01-15T04:44:06.974Z,13.12
2023-01-15T04:46:44.647Z,12.33
2023-01-15T04:49:16.732Z,12.47
2023-01-15T04:51:45.043Z,14.06
2023-01-15T04:54:16.622Z,14.30
2023-01-15T04:56:48.137Z,13.32
2023-01-15T04:59:19.379Z,12.54
2023-01-15T05:02:02.470Z,12.26
2023-01-15T05:04:32.754Z,13.71
2023-01-15T05:07:04.056Z,14.53
2023-01-15T05:09:32.345Z,13.63
2023-01-15T05:12:00.525Z,12.80
2023-01-15T05:14:28.944Z,12.60
2023-01-15T05:16:57.075Z,14.01
2023-01-15T05:19:25.354Z,14.71
2023-01-15T05:21:53.604Z,13.75
2023-01-15T05:24:21.799Z,13.06
2023-01-15T05:26:49.846Z,14.06
2023-01-15T05:29:18.109Z,15.34
2023-01-15T05:31:46.774Z,14.86
2023-01-15T05:34:15.045Z,13.71
2023-01-15T05:36:43.169Z,13.75
2023-01-15T05:39:11.350Z,15.12
2023-01-15T05:41:51.659Z,15.35
2023-01-15T05:44:28.557Z,14.11
2023-01-15T05:47:00.248Z,13.67
2023-01-15T05:49:31.316Z,15.00
2023-01-15T05:52:00.980Z,15.62
2023-01-15T05:54:33.140Z,14.50
2023-01-15T05:57:02.092Z,13.81
2023-01-15T05:59:31.764Z,14.92
2023-01-15T06:02:00.325Z,15.79
2023-01-15T06:04:28.390Z,14.79
2023-01-15T06:06:57.584Z,13.80
2023-01-15T06:09:28.288Z,14.50
2023-01-15T06:11:58.094Z,15.82
2023-01-15T06:14:28.690Z,15.67
2023-01-15T06:16:56.734Z,14.40
2023-01-15T06:19:24.756Z,14.11
2023-01-15T06:21:53.223Z,15.37
2023-01-15T06:24:21.397Z,16.02
2023-01-15T06:26:49.505Z,14.91
2023-01-15T06:29:19.192Z,14.22
2023-01-15T06:31:48.359Z,15.32
2023-01-15T06:34:18.494Z,16.17
2023-01-15T06:36:46.884Z,15.13
2023-01-15T06:39:15.046Z,14.36
2023-01-15T06:42:01.761Z,15.42
2023-01-15T06:44:48.491Z,16.44
2023-01-15T06:47:22.212Z,15.37
2023-01-15T06:49:58.312Z,14.30
2023-01-15T06:52:28.954Z,15.08
2023-01-15T06:54:57.185Z,16.24
2023-01-15T06:57:25.226Z,15.73
2023-01-15T06:59:54.552Z,14.53
2023-01-15T07:02:22.614Z,14.81
2023-01-15T07:04:52.135Z,16.14
2023-01-15T07:07:21.520Z,16.30
2023-01-15T07:09:50.957Z,15.04
2023-01-15T07:12:19.113Z,14.60
2023-01-15T07:17:29.765Z,16.42
2023-01-15T07:20:00.518Z,15.24
2023-01-15T07:22:28.770Z,14.69
2023-01-15T07:24:57.278Z,15.92
2023-01-15T07:27:25.410Z,16.55
2023-01-15T07:29:55.317Z,15.40
2023-01-15T07:32:42.738Z,14.71
2023-01-15T07:35:11.081Z,15.96
2023-01-15T07:37:40.480Z,16.72
2023-01-15T07:40:12.766Z,15.60
2023-01-15T07:42:59.510Z,14.89
2023-01-15T07:45:57.106Z,16.24
2023-01-15T07:48:44.664Z,16.59
2023-01-15T07:51:12.694Z,15.19
2023-01-15T07:53:40.733Z,15.04
2023-01-15T07:56:08.837Z,16.41
2023-01-15T07:58:39.238Z,16.87
2023-01-15T08:01:07.470Z,15.64
2023-01-15T08:03:35.490Z,14.97
2023-01-15T08:06:03.660Z,16.11
2023-01-15T08:08:31.567Z,16.86
2023-01-15T08:11:21.811Z,15.79
2023-01-15T08:14:08.360Z,14.77
2023-01-15T08:16:37.268Z,15.97
2023-01-15T08:19:05.383Z,16.63
2023-01-15T08:21:33.332Z,15.54
2023-01-15T08:24:04.553Z,15.00
2023-01-15T08:26:32.821Z,16.20
2023-01-15T08:29:01.624Z,17.01
2023-01-15T08:31:32.961Z,15.93
2023-01-15T08:34:01.328Z,14.96
2023-01-15T08:36:29.472Z,15.84
2023-01-15T08:38:57.853Z,17.09
2023-01-15T08:41:26.070Z,16.82
2023-01-15T08:43:54.136Z,15.55
2023-01-15T08:46:22.138Z,15.08
2023-01-15T08:48:50.248Z,16.35
2023-01-15T08:51:19.477Z,16.97
2023-01-15T08:53:47.960Z,15.80
2023-01-15T08:56:19.416Z,14.95
2023-01-15T08:58:48.869Z,15.98
2023-01-15T09:01:17.142Z,16.95
2023-01-15T09:03:45.317Z,16.05
2023-01-15T09:06:13.833Z,14.94
2023-01-15T09:08:45.472Z,15.26
2023-01-15T09:11:14.127Z,16.71
2023-01-15T09:13:44.320Z,16.77
2023-01-15T09:16:12.949Z,15.55
2023-01-15T09:18:42.775Z,14.99
2023-01-15T09:21:14.672Z,16.29
2023-01-15T09:23:44.897Z,16.91
2023-01-15T09:26:36.930Z,15.77
2023-01-15T09:29:07.575Z,14.99
2023-01-15T09:31:36.116Z,16.25
2023-01-15T09:34:06.138Z,16.91
2023-01-15T09:36:35.947Z,15.80
2023-01-15T09:39:04.973Z,15.02
2023-01-15T09:42:00.898Z,16.09
2023-01-15T09:44:50.218Z,16.86
2023-01-15T09:47:37.835Z,15.54
2023-01-15T09:50:20.426Z,14.38
2023-01-15T09:53:07.581Z,13.59
2023-01-15T09:55:45.916Z,14.02
2023-01-15T09:58:18.274Z,15.52
2023-01-15T10:00:50.788Z,14.90
2023-01-15T10:03:52.982Z,13.75
2023-01-15T10:06:40.957Z,13.37
2023-01-15T10:09:21.939Z,14.85
2023-01-15T10:12:18.965Z,14.22
2023-01-15T10:15:01.601Z,12.97
2023-01-15T10:17:42.783Z,13.30
2023-01-15T10:20:28.557Z,14.59
2023-01-15T10:23:54.960Z,13.47
2023-01-15T10:26:41.716Z,12.65
2023-01-15T10:29:38.602Z,14.10
2023-01-15T10:32:33.186Z,13.94
2023-01-15T10:36:01.619Z,12.64
2023-01-15T10:38:51.498Z,12.84
2023-01-15T10:42:17.128Z,14.45
2023-01-15T10:45:44.008Z,13.42
2023-01-15T10:52:16.980Z,13.72
2023-01-15T11:02:48.408Z,13.23
2023-01-15T11:10:41.865Z,12.39
2023-01-15T11:14:24.418Z,12.56
2023-01-15T11:17:42.580Z,13.38
2023-01-15T11:20:55.130Z,12.18
2023-01-15T11:27:18.834Z,14.01
2023-01-15T11:30:05.951Z,12.98
2023-01-15T11:33:20.799Z,11.95
2023-01-15T11:36:37.080Z,13.16
2023-01-15T11:39:33.001Z,13.63
2023-01-15T11:42:33.376Z,12.39
2023-01-15T11:45:40.104Z,11.75
2023-01-15T11:48:52.196Z,13.61
2023-01-15T11:51:59.553Z,14.04
2023-01-15T11:55:00.132Z,12.44
2023-01-15T11:58:42.693Z,11.71
2023-01-15T12:02:01.362Z,13.59
2023-01-15T12:08:21.700Z,12.02
2023-01-15T12:12:17.285Z,12.21
2023-01-15T12:15:41.822Z,14.18
2023-01-15T12:19:11.490Z,13.15
2023-01-15T12:22:15.625Z,11.76
2023-01-15T12:28:36.949Z,12.40
2023-01-15T12:33:55.485Z,11.85
2023-01-15T12:38:18.142Z,13.41
2023-01-15T12:50:48.677Z,13.62
2023-01-15T12:55:18.012Z,13.49
2023-01-15T12:58:02.554Z,11.64
2023-01-15T13:02:38.081Z,12.25
2023-01-15T15:19:56.561Z,12.56
2023-01-15T15:22:29.349Z,11.42
2023-01-15T15:24:59.359Z,10.53
2023-01-15T15:27:31.779Z,11.05
2023-01-15T15:30:12.012Z,12.86
2023-01-15T15:32:42.662Z,12.68
2023-01-15T15:35:35.659Z,11.47
2023-01-15T15:38:06.913Z,10.51
2023-01-15T15:41:12.897Z,11.56
2023-01-15T15:44:15.295Z,12.87
2023-01-15T15:47:09.096Z,11.78
2023-01-15T15:49:42.455Z,10.69
2023-01-15T15:52:23.513Z,10.80
2023-01-15T15:55:05.666Z,12.75
2023-01-15T15:57:34.966Z,13.02
2023-01-15T16:00:03.551Z,11.80
2023-01-15T16:02:48.861Z,10.85
2023-01-15T16:05:30.165Z,10.99
2023-01-15T16:08:20.546Z,12.86
2023-01-15T16:10:53.389Z,12.63
2023-01-15T16:13:35.451Z,11.44
2023-01-15T16:16:04.536Z,10.54
2023-01-15T16:18:49.037Z,11.31
2023-01-15T16:21:36.217Z,13.03
2023-01-15T16:24:18.376Z,12.20
2023-01-15T16:27:01.242Z,11.05
2023-01-15T16:29:34.850Z,10.89
2023-01-15T16:32:11.292Z,12.65
2023-01-15T16:34:39.361Z,13.11
2023-01-15T16:37:31.282Z,11.92
2023-01-15T16:40:06.401Z,10.81
2023-01-15T16:42:38.348Z,11.10
2023-01-15T16:45:35.044Z,12.77
2023-01-15T16:48:20.790Z,12.04
2023-01-15T16:50:50.281Z,10.90
2023-01-15T16:53:55.931Z,11.32
2023-01-15T16:56:38.812Z,13.04
2023-01-15T16:59:45.601Z,12.14
2023-01-15T17:02:21.615Z,10.90
2023-01-15T17:04:55.917Z,10.88
2023-01-15T17:07:28.534Z,12.49
2023-01-15T17:10:02.121Z,12.08
2023-01-15T17:12:34.517Z,10.99
2023-01-15T17:15:17.842Z,10.55
2023-01-15T17:17:57.012Z,12.24
2023-01-15T17:20:29.044Z,12.46
2023-01-15T17:23:40.950Z,11.31
2023-01-15T17:26:47.385Z,10.41
2023-01-15T17:30:05.422Z,12.22
2023-01-15T17:33:09.543Z,12.16
2023-01-15T17:36:04.944Z,10.88
2023-01-15T17:38:58.626Z,10.41
2023-01-15T17:41:44.314Z,12.27
2023-01-15T17:44:16.019Z,12.07
2023-01-15T17:46:56.850Z,10.96
2023-01-15T17:49:46.704Z,10.14
2023-01-15T17:52:19.279Z,11.23
2023-01-15T17:55:05.088Z,12.47
2023-01-15T17:57:51.473Z,11.41
2023-01-15T18:00:38.068Z,10.34
2023-01-15T18:03:35.883Z,10.36
2023-01-15T18:06:03.418Z,12.21
2023-01-15T18:08:31.140Z,11.67
2023-01-15T18:11:02.904Z,10.63
2023-01-15T18:13:34.463Z,9.94
2023-01-15T18:16:02.138Z,10.97
2023-01-15T18:18:28.983Z,12.01
2023-01-15T18:20:55.779Z,11.08
2023-01-15T18:23:22.631Z,10.19
2023-01-15T18:25:50.635Z,9.72
2023-01-15T18:28:17.674Z,11.07
2023-01-15T18:30:44.445Z,11.80
2023-01-15T18:33:11.364Z,10.82
2023-01-15T18:35:38.487Z,9.95
2023-01-15T18:38:06.260Z,9.56
2023-01-15T18:40:35.524Z,11.07
2023-01-15T18:43:21.178Z,11.50
2023-01-15T18:46:27.074Z,10.26
2023-01-15T18:48:57.345Z,9.44
2023-01-15T18:51:25.715Z,10.13
2023-01-15T18:53:53.783Z,11.63
2023-01-15T18:56:40.490Z,10.96
2023-01-15T18:59:11.550Z,9.86
2023-01-15T19:01:42.977Z,9.20
2023-01-15T19:04:12.905Z,10.08
2023-01-15T19:06:56.746Z,11.55
2023-01-15T19:09:24.851Z,10.67
2023-01-15T19:11:56.349Z,9.72
2023-01-15T19:14:44.963Z,9.05
2023-01-15T19:17:40.733Z,9.53
2023-01-15T19:20:15.217Z,11.40
2023-01-15T19:22:59.792Z,10.61
2023-01-15T19:25:45.216Z,9.54
2023-01-15T19:28:17.682Z,9.30
2023-01-15T19:31:07.103Z,11.07
2023-01-15T19:33:40.157Z,11.26
2023-01-15T19:36:10.806Z,10.15
2023-01-15T19:38:41.896Z,9.33
2023-01-15T19:41:31.353Z,9.19
2023-01-15T19:44:18.546Z,11.00
2023-01-15T19:47:22.327Z,10.54
2023-01-15T19:50:09.852Z,9.40
2023-01-15T19:52:41.281Z,8.74
2023-01-15T19:55:19.233Z,9.86
2023-01-15T19:57:57.436Z,11.16
2023-01-15T20:00:27.703Z,10.22
2023-01-15T20:02:59.978Z,9.31
2023-01-15T20:05:32.568Z,8.64
2023-01-15T20:08:05.287Z,9.15
2023-01-15T20:10:35.056Z,10.82
2023-01-15T20:13:23.406Z,10.30
2023-01-15T20:15:57.919Z,9.23
2023-01-15T20:18:28.598Z,8.53
2023-01-15T20:20:57.911Z,8.27
2023-01-15T20:23:34.784Z,9.83
2023-01-15T20:26:11.411Z,10.32
2023-01-15T20:28:59.121Z,9.33
2023-01-15T20:31:34.232Z,8.49
2023-01-15T20:34:03.622Z,7.98
2023-01-15T20:36:36.071Z,8.75
2023-01-15T20:39:04.972Z,10.30
2023-01-15T20:41:52.506Z,9.61
2023-01-15T20:44:46.386Z,8.64
2023-01-15T20:47:34.010Z,7.96
2023-01-15T20:50:10.077Z,7.91
2023-01-15T20:52:42.129Z,9.79
2023-01-15T20:55:13.598Z,9.92
2023-01-15T20:57:47.623Z,8.97
2023-01-15T21:00:21.412Z,8.24
2023-01-15T21:02:50.692Z,7.73
2023-01-15T21:05:20.759Z,7.39
2023-01-15T21:07:51.186Z,8.45
2023-01-15T21:10:23.214Z,10.08
2023-01-15T21:12:54.031Z,9.40
2023-01-15T21:15:37.185Z,8.42
2023-01-15T21:18:08.745Z,7.82
2023-01-15T21:20:40.157Z,7.53
2023-01-15T21:23:09.372Z,9.06
2023-01-15T21:25:47.643Z,9.43
2023-01-15T21:28:16.498Z,8.55
2023-01-15T21:30:45.275Z,7.87
2023-01-15T21:33:15.318Z,7.39
2023-01-15T21:35:44.283Z,7.36
2023-01-15T21:38:15.121Z,9.16
2023-01-15T21:40:43.698Z,9.74
2023-01-15T21:43:30.476Z,8.80
2023-01-15T21:46:06.905Z,7.95
2023-01-15T21:48:38.944Z,7.43
2023-01-15T21:51:07.640Z,7.07
2023-01-15T21:53:36.238Z,8.06
2023-01-15T21:56:09.706Z,9.67
2023-01-15T21:58:42.697Z,9.01
2023-01-15T22:01:15.153Z,8.12
2023-01-15T22:04:26.998Z,7.51
2023-01-15T22:07:00.976Z,6.99
2023-01-15T22:09:58.743Z,7.74
2023-01-15T22:12:47.498Z,9.53
2023-01-15T22:15:30.655Z,8.79
2023-01-15T22:18:01.096Z,7.89
2023-01-15T22:20:29.453Z,7.35
2023-01-15T22:22:57.618Z,6.95
2023-01-15T22:25:25.898Z,6.66
2023-01-15T22:27:54.264Z,7.68
2023-01-15T22:30:22.466Z,9.25
2023-01-15T22:32:51.562Z,8.63
2023-01-15T22:35:20.554Z,7.81
2023-01-15T22:37:48.809Z,7.25
2023-01-15T22:40:22.949Z,6.86
2023-01-15T22:42:51.505Z,6.63
2023-01-15T22:45:20.831Z,8.01
2023-01-15T22:47:49.636Z,9.48
2023-01-15T22:50:18.162Z,8.75
2023-01-15T22:52:47.474Z,7.89
2023-01-15T22:55:18.840Z,7.30
2023-01-15T22:57:47.944Z,6.87
2023-01-15T23:00:17.008Z,6.54
2023-01-15T23:03:05.005Z,6.48
2023-01-15T23:05:40.202Z,8.45
2023-01-15T23:08:08.564Z,9.25
2023-01-15T23:10:37.700Z,8.34
2023-01-15T23:13:13.443Z,7.56
2023-01-15T23:15:42.220Z,7.02
2023-01-15T23:18:16.944Z,6.64
2023-01-15T23:20:51.546Z,6.35
2023-01-15T23:23:21.514Z,6.58
2023-01-15T23:25:50.292Z,8.57
2023-01-15T23:28:23.074Z,9.26
2023-01-15T23:30:55.604Z,8.31
2023-01-15T23:33:24.008Z,7.51
2023-01-15T23:35:53.313Z,7.01
2023-01-15T23:38:23.888Z,6.65
2023-01-15T23:40:53.722Z,6.35
2023-01-15T23:43:40.390Z,6.34
2023-01-15T23:46:33.682Z,8.35
2023-01-15T23:49:10.944Z,9.02
2023-01-15T23:51:39.288Z,8.03
2023-01-15T23:54:08.752Z,7.33
2023-01-15T23:56:37.180Z,6.84
2023-01-15T23:59:05.560Z,6.50
